Wilmington, DE (19806)

2:23 AM EDT on August 31, 2014 (GMT -0400)
Woodbrook | Change Station
CLOSE
Current Station
Personal Weather Station
Location: Wilmington, DE
Elevation: 325 ft
Nearby Weather Stations

Elev 325 ft 39.79 °N, 75.56 °W | Updated 13 minutes ago

Overcast
Overcast
72.0 °F
Feels Like 72.0 °F
N
0.0
Wind Variable Wind from ESE

Today
High -- | Low -- °F
--% Chance of Precip.
Yesterday
High -- | Low -- °F
Precip. -- in
6:29 AM 7:35 PM
Waxing Crescent, 28% visible
Pressure 30.14 in
Visibility 10.0 miles
Clouds Mostly Cloudy 3200 ft
Overcast 4900 ft
Dew Point 69 °F
Humidity 89%
Rainfall 0.00 in
Snow Depth Not available.
UV 0 out of 12
Pollen 9.80 out of 12
Air Quality Not available.
Flu Activity Not available.
METAR KILG 310551Z AUTO 18007KT 10SM BKN032 OVC049 23/19 A3015 RMK AO2 SLP207 T02330194 10244 20228 58007

More Conditions Fewer Conditions

Pressure 30.14 in
Visibility 10.0 miles
Clouds Mostly Cloudy 3200 ft
Overcast 4900 ft
Dew Point 69 °F
Humidity 89%
Rainfall 0.00 in
Snow Depth Not available.
UV 0 out of 12
Pollen 9.80 out of 12
Air Quality Not available.
Flu Activity Not available.
METAR KILG 310551Z AUTO 18007KT 10SM BKN032 OVC049 23/19 A3015 RMK AO2 SLP207 T02330194 10244 20228 58007

More Conditions Fewer Conditions

10-Day Weather Forecast

Almanac

Astronomy

Aug. 31, 2014 Rise Set
Actual Time 6:29 AM EDT 7:35 PM EDT
Civil Twilight 6:01 AM EDT 8:02 PM EDT
Nautical Twilight 5:28 AM EDT 8:35 PM EDT
Astronomical Twilight 4:53 AM EDT 9:10 PM EDT
Moon 12:12 PM EDT 10:49 PM EDT
Length of Visible Light 14h 01m
Length of Day
13h 05m
Tomorrow will be 2m 29s shorter.
Waxing Crescent, 28% of the Moon is Illuminated
Today
Waxing Crescent
Sep 2
First Quarter
Sep 8
Full
Sep 15
Last Quarter
Sep 24
New

Today's Extremes

State Highs State Lows

Community

WunderPhotos

Upload Photos

1,748,801 photos uploaded!

Nearby

Snow Depth

Station Depth Elevation
No new snow has been reported.

Earthquake Activity

City Distance Mag. Time & Date
No recent earthquake activity has been reported nearby.
Minimum magnitude displayed is 2.5.

Coastal Water Temperatures

Place Temperature
Ship John Shoal, NJ 75.9 °F
Cape May, NJ 79.0 °F
Reedy Point, DE 78.1 °F
Delaware City, DE 77.0 °F
Marcus Hook, PA 77.0 °F

Nearby Weather Stations